createdAt,value
2022-12-23T00:03:07.284Z,56
2022-12-23T00:13:07.310Z,56
2022-12-23T00:23:07.183Z,54.5
2022-12-23T00:33:07.299Z,54.5
2022-12-23T00:43:07.191Z,56
2022-12-23T00:53:07.282Z,56
2022-12-23T01:03:07.541Z,56
2022-12-23T01:13:08.788Z,57
2022-12-23T01:23:07.373Z,56.5
2022-12-23T01:33:07.256Z,61
2022-12-23T01:43:07.314Z,56.5
2022-12-23T01:53:08.483Z,56.5
2022-12-23T02:03:07.430Z,56.5
2022-12-23T02:13:07.457Z,60.5
2022-12-23T02:23:07.307Z,63
2022-12-23T02:33:07.550Z,62
2022-12-23T02:43:07.315Z,58
2022-12-23T02:53:07.439Z,56.5
2022-12-23T03:03:07.405Z,56.5
2022-12-23T03:13:07.428Z,58
2022-12-23T03:23:07.507Z,56.5
2022-12-23T03:33:07.443Z,56.5
2022-12-23T03:43:07.510Z,56.5
2022-12-23T03:53:07.438Z,56.5
2022-12-23T04:03:07.498Z,56.5
2022-12-23T04:13:07.464Z,57.5
2022-12-23T04:23:07.533Z,58
2022-12-23T04:33:07.497Z,58
2022-12-23T04:43:07.514Z,58
2022-12-23T04:53:07.632Z,58
2022-12-23T05:03:07.662Z,58
2022-12-23T05:13:07.670Z,58
2022-12-23T05:23:07.544Z,59.5
2022-12-23T05:33:07.692Z,67.5
2022-12-23T05:43:07.501Z,70
2022-12-23T05:53:07.604Z,70
2022-12-23T06:03:07.727Z,72
2022-12-23T06:13:07.637Z,77.5
2022-12-23T06:23:07.722Z,78
2022-12-23T06:33:07.608Z,77
2022-12-23T06:43:07.684Z,78
2022-12-23T06:53:07.596Z,83.5
2022-12-23T07:03:07.874Z,84
2022-12-23T07:13:07.625Z,83
2022-12-23T07:23:07.700Z,86
2022-12-23T07:33:07.612Z,87
2022-12-23T07:43:07.712Z,85.5
2022-12-23T07:53:07.823Z,85
2022-12-23T08:03:07.861Z,86
2022-12-23T08:13:07.840Z,86.5
2022-12-23T08:23:07.675Z,86
2022-12-23T08:33:07.820Z,84.5
2022-12-23T08:43:07.683Z,83.5
2022-12-23T08:53:07.816Z,84
2022-12-23T09:03:07.820Z,83
2022-12-23T09:13:07.785Z,82.5
2022-12-23T09:23:07.880Z,80.5
2022-12-23T09:33:07.797Z,80.5
2022-12-23T09:43:07.872Z,79
2022-12-23T09:53:07.774Z,78.5
2022-12-23T10:03:07.961Z,76.5
2022-12-23T10:13:07.783Z,77
2022-12-23T10:23:07.880Z,80
2022-12-23T10:33:07.788Z,82
2022-12-23T10:43:07.871Z,82
2022-12-23T10:53:07.975Z,84
2022-12-23T11:03:07.971Z,85.5
2022-12-23T11:13:08.280Z,86
2022-12-23T11:23:07.887Z,87
2022-12-23T11:33:08.016Z,88
2022-12-23T11:43:07.914Z,89.5
2022-12-23T11:53:08.154Z,90
2022-12-23T12:03:08.041Z,92
2022-12-23T12:13:08.022Z,90.5
2022-12-23T12:23:07.872Z,90.5
2022-12-23T12:33:07.981Z,88.5
2022-12-23T12:43:07.888Z,89.5
2022-12-23T12:53:08.014Z,90
2022-12-23T13:03:08.118Z,88.5
2022-12-23T13:13:07.971Z,88.5
2022-12-23T13:23:34.229Z,90
2022-12-23T13:33:08.006Z,90
2022-12-23T13:43:08.069Z,90
2022-12-23T13:53:07.983Z,88.5
2022-12-23T14:03:08.133Z,88.5
2022-12-23T14:13:08.168Z,87.5
2022-12-23T14:23:08.069Z,87.5
2022-12-23T14:33:08.180Z,87
2022-12-23T14:43:08.038Z,85
2022-12-23T14:53:08.163Z,87.5
2022-12-23T15:03:08.131Z,85
2022-12-23T15:13:08.163Z,84
2022-12-23T15:23:08.039Z,82.5
2022-12-23T15:33:21.727Z,87.5
2022-12-23T15:43:08.237Z,87.5
2022-12-23T15:53:08.161Z,88
2022-12-23T16:03:13.711Z,87.5
2022-12-23T16:13:08.176Z,83
2022-12-23T16:23:08.271Z,83.5
2022-12-23T16:33:08.166Z,82.5
2022-12-23T16:43:08.252Z,81
2022-12-23T16:53:08.199Z,77.5
2022-12-23T17:03:08.275Z,77.5
2022-12-23T17:13:08.395Z,71
2022-12-23T17:23:08.244Z,72
2022-12-23T17:33:08.368Z,72.5
2022-12-23T17:43:08.239Z,77.5
2022-12-23T17:53:08.384Z,77
2022-12-23T18:03:08.270Z,74
2022-12-23T18:13:08.359Z,76.5
2022-12-23T18:23:08.563Z,71.5
2022-12-23T18:33:08.382Z,73
2022-12-23T18:43:08.462Z,72.5
2022-12-23T18:53:08.361Z,72.5
2022-12-23T19:03:08.564Z,73
2022-12-23T19:13:08.394Z,72
2022-12-23T19:23:08.873Z,72.5
2022-12-23T19:33:09.663Z,64
2022-12-23T19:43:08.574Z,65
2022-12-23T19:53:08.337Z,74
2022-12-23T20:03:08.512Z,78.5
2022-12-23T20:13:08.558Z,72
2022-12-23T20:23:08.443Z,71.5
2022-12-23T20:33:08.604Z,70.5
2022-12-23T20:43:13.460Z,67
2022-12-23T20:53:08.980Z,75.5
2022-12-23T21:03:10.695Z,70.5
2022-12-23T21:13:08.902Z,78
2022-12-23T21:23:08.748Z,77.5
2022-12-23T21:33:08.548Z,68.5
2022-12-23T21:43:09.020Z,71.5
2022-12-23T21:53:08.830Z,73.5
2022-12-23T22:03:08.608Z,71
2022-12-23T22:13:08.568Z,69.5
2022-12-23T22:23:08.602Z,67.5
2022-12-23T22:33:08.512Z,71
2022-12-23T22:43:08.606Z,71.5
2022-12-23T22:53:08.536Z,70.5
2022-12-23T23:03:08.595Z,69
2022-12-23T23:13:08.724Z,66
2022-12-23T23:23:08.595Z,70
2022-12-23T23:33:08.743Z,74
2022-12-23T23:43:08.605Z,68.5
2022-12-23T23:53:08.720Z,60
